sensor_id;sensor_type;location;lat;lon;timestamp;temperature;humidity
51733;DHT22;39139;53.144;6.244;2023-01-10T00:01:58;4.20;99.90
51733;DHT22;39139;53.144;6.244;2023-01-10T00:04:23;4.20;99.90
51733;DHT22;39139;53.144;6.244;2023-01-10T00:06:51;4.50;99.90
51733;DHT22;39139;53.144;6.244;2023-01-10T00:09:17;4.40;99.90
51733;DHT22;39139;53.144;6.244;2023-01-10T00:11:42;4.60;99.90
51733;DHT22;39139;53.144;6.244;2023-01-10T00:14:27;4.50;99.90
51733;DHT22;39139;53.144;6.244;2023-01-10T00:16:53;4.70;99.90
51733;DHT22;39139;53.144;6.244;2023-01-10T00:19:19;6.30;99.90
51733;DHT22;39139;53.144;6.244;2023-01-10T00:21:44;4.60;99.90
51733;DHT22;39139;53.144;6.244;2023-01-10T00:24:10;4.60;99.90
51733;DHT22;39139;53.144;6.244;2023-01-10T00:26:49;4.60;99.90
51733;DHT22;39139;53.144;6.244;2023-01-10T00:29:24;4.70;99.90
51733;DHT22;39139;53.144;6.244;2023-01-10T00:31:52;5.20;99.90
51733;DHT22;39139;53.144;6.244;2023-01-10T00:34:18;6.20;99.90
51733;DHT22;39139;53.144;6.244;2023-01-10T00:36:44;4.90;99.90
51733;DHT22;39139;53.144;6.244;2023-01-10T00:39:12;5.00;99.90
51733;DHT22;39139;53.144;6.244;2023-01-10T00:41:38;5.00;99.90
51733;DHT22;39139;53.144;6.244;2023-01-10T00:44:22;5.30;99.90
51733;DHT22;39139;53.144;6.244;2023-01-10T00:46:48;6.10;99.90
51733;DHT22;39139;53.144;6.244;2023-01-10T00:49:14;4.90;99.90
51733;DHT22;39139;53.144;6.244;2023-01-10T00:51:41;5.20;99.90
51733;DHT22;39139;53.144;6.244;2023-01-10T00:54:11;5.00;99.90
51733;DHT22;39139;53.144;6.244;2023-01-10T00:56:37;5.10;99.90
51733;DHT22;39139;53.144;6.244;2023-01-10T00:59:03;5.00;99.90
51733;DHT22;39139;53.144;6.244;2023-01-10T01:01:29;5.00;99.90
51733;DHT22;39139;53.144;6.244;2023-01-10T01:03:55;5.00;99.90
51733;DHT22;39139;53.144;6.244;2023-01-10T01:06:20;6.30;99.90
51733;DHT22;39139;53.144;6.244;2023-01-10T01:08:46;5.20;99.90
51733;DHT22;39139;53.144;6.244;2023-01-10T01:11:12;5.20;99.90
51733;DHT22;39139;53.144;6.244;2023-01-10T01:13:37;5.30;99.90
51733;DHT22;39139;53.144;6.244;2023-01-10T01:16:03;5.30;99.90
51733;DHT22;39139;53.144;6.244;2023-01-10T01:18:29;5.40;99.90
51733;DHT22;39139;53.144;6.244;2023-01-10T01:20:56;5.30;99.90
51733;DHT22;39139;53.144;6.244;2023-01-10T01:23:24;5.30;99.90
51733;DHT22;39139;53.144;6.244;2023-01-10T01:25:54;5.40;99.90
51733;DHT22;39139;53.144;6.244;2023-01-10T01:28:20;5.40;99.90
51733;DHT22;39139;53.144;6.244;2023-01-10T01:30:49;5.40;99.90
51733;DHT22;39139;53.144;6.244;2023-01-10T01:33:15;5.40;99.90
51733;DHT22;39139;53.144;6.244;2023-01-10T01:35:46;5.40;99.90
51733;DHT22;39139;53.144;6.244;2023-01-10T01:38:12;5.30;99.90
51733;DHT22;39139;53.144;6.244;2023-01-10T01:40:38;5.40;99.90
51733;DHT22;39139;53.144;6.244;2023-01-10T01:45:47;5.40;99.90
51733;DHT22;39139;53.144;6.244;2023-01-10T01:51:03;5.50;99.90
51733;DHT22;39139;53.144;6.244;2023-01-10T01:56:20;5.40;99.90
51733;DHT22;39139;53.144;6.244;2023-01-10T01:59:00;5.60;99.90
51733;DHT22;39139;53.144;6.244;2023-01-10T02:01:27;5.50;99.90
51733;DHT22;39139;53.144;6.244;2023-01-10T02:04:02;5.50;99.90
51733;DHT22;39139;53.144;6.244;2023-01-10T02:06:31;6.40;99.90
51733;DHT22;39139;53.144;6.244;2023-01-10T02:09:16;5.50;99.90
51733;DHT22;39139;53.144;6.244;2023-01-10T02:11:44;5.40;99.90
51733;DHT22;39139;53.144;6.244;2023-01-10T02:14:10;5.30;99.90
51733;DHT22;39139;53.144;6.244;2023-01-10T02:16:36;5.30;99.90
51733;DHT22;39139;53.144;6.244;2023-01-10T02:19:03;5.30;99.90
51733;DHT22;39139;53.144;6.244;2023-01-10T02:21:48;5.30;99.90
51733;DHT22;39139;53.144;6.244;2023-01-10T02:27:05;5.10;99.90
51733;DHT22;39139;53.144;6.244;2023-01-10T02:29:55;5.00;99.90
51733;DHT22;39139;53.144;6.244;2023-01-10T02:32:30;5.20;99.90
51733;DHT22;39139;53.144;6.244;2023-01-10T02:37:44;5.20;99.90
51733;DHT22;39139;53.144;6.244;2023-01-10T02:40:29;5.00;99.90
51733;DHT22;39139;53.144;6.244;2023-01-10T02:43:14;5.10;99.90
51733;DHT22;39139;53.144;6.244;2023-01-10T02:45:56;5.20;99.90
51733;DHT22;39139;53.144;6.244;2023-01-10T02:48:23;5.20;99.90
51733;DHT22;39139;53.144;6.244;2023-01-10T02:53:42;5.40;99.90
51733;DHT22;39139;53.144;6.244;2023-01-10T03:02:16;5.60;99.90
51733;DHT22;39139;53.144;6.244;2023-01-10T03:07:51;5.50;99.90
51733;DHT22;39139;53.144;6.244;2023-01-10T03:10:20;5.50;99.90
51733;DHT22;39139;53.144;6.244;2023-01-10T03:15:28;5.60;99.90
51733;DHT22;39139;53.144;6.244;2023-01-10T03:17:57;5.80;99.90
51733;DHT22;39139;53.144;6.244;2023-01-10T03:20:24;5.70;99.90
51733;DHT22;39139;53.144;6.244;2023-01-10T03:22:53;5.90;99.90
51733;DHT22;39139;53.144;6.244;2023-01-10T03:25:23;5.70;99.90
51733;DHT22;39139;53.144;6.244;2023-01-10T03:27:59;5.70;99.90
51733;DHT22;39139;53.144;6.244;2023-01-10T03:30:36;5.90;99.90
51733;DHT22;39139;53.144;6.244;2023-01-10T03:33:04;5.90;99.90
51733;DHT22;39139;53.144;6.244;2023-01-10T03:38:23;5.70;99.90
51733;DHT22;39139;53.144;6.244;2023-01-10T03:41:13;5.90;99.90
51733;DHT22;39139;53.144;6.244;2023-01-10T03:43:52;5.90;99.90
51733;DHT22;39139;53.144;6.244;2023-01-10T03:46:56;6.50;99.90
51733;DHT22;39139;53.144;6.244;2023-01-10T03:49:24;5.90;99.90
51733;DHT22;39139;53.144;6.244;2023-01-10T03:51:51;7.00;99.90
51733;DHT22;39139;53.144;6.244;2023-01-10T03:54:18;5.90;99.90
51733;DHT22;39139;53.144;6.244;2023-01-10T03:56:49;5.90;99.90
51733;DHT22;39139;53.144;6.244;2023-01-10T03:59:26;5.80;99.90
51733;DHT22;39139;53.144;6.244;2023-01-10T04:01:52;6.80;99.90
51733;DHT22;39139;53.144;6.244;2023-01-10T04:04:18;5.80;99.90
51733;DHT22;39139;53.144;6.244;2023-01-10T04:06:43;5.60;99.90
51733;DHT22;39139;53.144;6.244;2023-01-10T04:09:10;5.40;99.90
51733;DHT22;39139;53.144;6.244;2023-01-10T04:11:35;5.50;99.90
51733;DHT22;39139;53.144;6.244;2023-01-10T04:14:01;5.30;99.90
51733;DHT22;39139;53.144;6.244;2023-01-10T04:16:27;5.40;99.90
51733;DHT22;39139;53.144;6.244;2023-01-10T04:18:53;5.30;99.90
51733;DHT22;39139;53.144;6.244;2023-01-10T04:21:18;5.30;99.90
51733;DHT22;39139;53.144;6.244;2023-01-10T04:23:44;5.30;99.90
51733;DHT22;39139;53.144;6.244;2023-01-10T04:26:10;5.50;99.90
51733;DHT22;39139;53.144;6.244;2023-01-10T04:28:36;5.70;99.90
51733;DHT22;39139;53.144;6.244;2023-01-10T04:31:01;5.50;99.90
51733;DHT22;39139;53.144;6.244;2023-01-10T04:33:27;5.40;99.90
51733;DHT22;39139;53.144;6.244;2023-01-10T04:35:53;6.50;99.90
51733;DHT22;39139;53.144;6.244;2023-01-10T04:38:19;5.60;99.90
51733;DHT22;39139;53.144;6.244;2023-01-10T04:40:54;6.00;99.90
51733;DHT22;39139;53.144;6.244;2023-01-10T04:43:20;5.60;99.90
51733;DHT22;39139;53.144;6.244;2023-01-10T04:45:46;5.80;99.90
51733;DHT22;39139;53.144;6.244;2023-01-10T04:48:12;5.80;99.90
51733;DHT22;39139;53.144;6.244;2023-01-10T04:50:38;5.70;99.90
51733;DHT22;39139;53.144;6.244;2023-01-10T04:53:03;5.80;99.90
51733;DHT22;39139;53.144;6.244;2023-01-10T04:55:29;5.90;99.90
51733;DHT22;39139;53.144;6.244;2023-01-10T04:57:55;5.70;99.90
51733;DHT22;39139;53.144;6.244;2023-01-10T05:00:21;5.50;99.90
51733;DHT22;39139;53.144;6.244;2023-01-10T05:02:47;5.80;99.90
51733;DHT22;39139;53.144;6.244;2023-01-10T05:05:13;5.50;99.90
51733;DHT22;39139;53.144;6.244;2023-01-10T05:07:39;5.50;99.90
51733;DHT22;39139;53.144;6.244;2023-01-10T05:10:06;5.60;99.90
51733;DHT22;39139;53.144;6.244;2023-01-10T05:12:33;5.50;99.90
51733;DHT22;39139;53.144;6.244;2023-01-10T05:14:58;7.00;99.90
51733;DHT22;39139;53.144;6.244;2023-01-10T05:17:25;5.80;99.90
51733;DHT22;39139;53.144;6.244;2023-01-10T05:19:50;5.70;99.90
51733;DHT22;39139;53.144;6.244;2023-01-10T05:22:16;5.70;99.90
51733;DHT22;39139;53.144;6.244;2023-01-10T05:24:41;5.60;99.90
51733;DHT22;39139;53.144;6.244;2023-01-10T05:27:07;5.70;99.90
51733;DHT22;39139;53.144;6.244;2023-01-10T05:29:33;5.60;99.90
51733;DHT22;39139;53.144;6.244;2023-01-10T05:31:59;5.60;99.90
51733;DHT22;39139;53.144;6.244;2023-01-10T05:34:25;5.90;99.90
51733;DHT22;39139;53.144;6.244;2023-01-10T05:36:51;5.80;99.90
51733;DHT22;39139;53.144;6.244;2023-01-10T05:39:16;5.80;99.90
51733;DHT22;39139;53.144;6.244;2023-01-10T05:41:42;5.90;99.90
51733;DHT22;39139;53.144;6.244;2023-01-10T05:44:07;5.80;99.90
51733;DHT22;39139;53.144;6.244;2023-01-10T05:46:33;6.00;99.90
51733;DHT22;39139;53.144;6.244;2023-01-10T05:48:59;6.60;99.90
51733;DHT22;39139;53.144;6.244;2023-01-10T05:51:25;5.80;99.90
51733;DHT22;39139;53.144;6.244;2023-01-10T05:53:50;5.80;99.90
51733;DHT22;39139;53.144;6.244;2023-01-10T05:56:16;5.90;99.90
51733;DHT22;39139;53.144;6.244;2023-01-10T05:58:42;7.10;99.90
51733;DHT22;39139;53.144;6.244;2023-01-10T06:01:08;5.90;99.90
51733;DHT22;39139;53.144;6.244;2023-01-10T06:03:34;6.10;99.90
51733;DHT22;39139;53.144;6.244;2023-01-10T06:06:00;5.90;99.90
51733;DHT22;39139;53.144;6.244;2023-01-10T06:08:28;6.10;99.90
51733;DHT22;39139;53.144;6.244;2023-01-10T06:10:53;6.00;99.90
51733;DHT22;39139;53.144;6.244;2023-01-10T06:13:20;6.00;99.90
51733;DHT22;39139;53.144;6.244;2023-01-10T06:15:46;5.90;99.90
51733;DHT22;39139;53.144;6.244;2023-01-10T06:18:12;5.90;99.90
51733;DHT22;39139;53.144;6.244;2023-01-10T06:20:39;6.00;99.90
51733;DHT22;39139;53.144;6.244;2023-01-10T06:23:05;5.80;99.90
51733;DHT22;39139;53.144;6.244;2023-01-10T06:25:32;5.80;99.90
51733;DHT22;39139;53.144;6.244;2023-01-10T06:28:00;5.90;99.90
51733;DHT22;39139;53.144;6.244;2023-01-10T06:30:26;5.50;99.90
51733;DHT22;39139;53.144;6.244;2023-01-10T06:32:51;5.40;99.90
51733;DHT22;39139;53.144;6.244;2023-01-10T06:35:17;5.50;99.90
51733;DHT22;39139;53.144;6.244;2023-01-10T06:37:43;5.40;99.90
51733;DHT22;39139;53.144;6.244;2023-01-10T06:40:09;5.30;99.90
51733;DHT22;39139;53.144;6.244;2023-01-10T06:42:35;5.30;99.90
51733;DHT22;39139;53.144;6.244;2023-01-10T06:45:01;5.20;99.90
51733;DHT22;39139;53.144;6.244;2023-01-10T06:47:27;4.90;99.90
51733;DHT22;39139;53.144;6.244;2023-01-10T06:49:53;4.90;99.90
51733;DHT22;39139;53.144;6.244;2023-01-10T06:52:18;4.70;99.90
51733;DHT22;39139;53.144;6.244;2023-01-10T06:54:44;4.70;99.90
51733;DHT22;39139;53.144;6.244;2023-01-10T06:57:09;4.70;99.90
51733;DHT22;39139;53.144;6.244;2023-01-10T06:59:35;4.70;99.90
51733;DHT22;39139;53.144;6.244;2023-01-10T07:02:01;4.70;99.90
51733;DHT22;39139;53.144;6.244;2023-01-10T07:04:26;4.80;99.90
51733;DHT22;39139;53.144;6.244;2023-01-10T07:06:52;5.90;99.90
51733;DHT22;39139;53.144;6.244;2023-01-10T07:09:18;4.70;99.90
51733;DHT22;39139;53.144;6.244;2023-01-10T07:11:44;4.90;99.90
51733;DHT22;39139;53.144;6.244;2023-01-10T07:14:09;5.00;99.90
51733;DHT22;39139;53.144;6.244;2023-01-10T07:16:35;5.20;99.90
51733;DHT22;39139;53.144;6.244;2023-01-10T07:19:01;4.90;99.90
51733;DHT22;39139;53.144;6.244;2023-01-10T07:21:27;5.00;99.90
51733;DHT22;39139;53.144;6.244;2023-01-10T07:23:53;6.40;99.90
51733;DHT22;39139;53.144;6.244;2023-01-10T07:26:19;5.20;99.90
51733;DHT22;39139;53.144;6.244;2023-01-10T07:28:46;5.50;99.90
51733;DHT22;39139;53.144;6.244;2023-01-10T07:31:15;5.30;99.90
51733;DHT22;39139;53.144;6.244;2023-01-10T07:33:41;5.40;99.90
51733;DHT22;39139;53.144;6.244;2023-01-10T07:36:06;5.40;99.90
51733;DHT22;39139;53.144;6.244;2023-01-10T07:38:32;5.60;99.90
51733;DHT22;39139;53.144;6.244;2023-01-10T07:41:01;5.40;99.90
51733;DHT22;39139;53.144;6.244;2023-01-10T07:43:27;5.90;99.90
51733;DHT22;39139;53.144;6.244;2023-01-10T07:45:53;5.40;99.90
51733;DHT22;39139;53.144;6.244;2023-01-10T07:48:18;6.60;99.90
51733;DHT22;39139;53.144;6.244;2023-01-10T07:50:44;5.70;99.90
51733;DHT22;39139;53.144;6.244;2023-01-10T07:53:10;5.60;99.90
51733;DHT22;39139;53.144;6.244;2023-01-10T07:55:36;5.50;99.90
51733;DHT22;39139;53.144;6.244;2023-01-10T07:58:04;5.80;99.90
51733;DHT22;39139;53.144;6.244;2023-01-10T08:00:32;5.70;99.90
51733;DHT22;39139;53.144;6.244;2023-01-10T08:02:58;5.70;99.90
51733;DHT22;39139;53.144;6.244;2023-01-10T08:05:25;4.60;99.90
51733;DHT22;39139;53.144;6.244;2023-01-10T08:07:51;5.70;99.90
51733;DHT22;39139;53.144;6.244;2023-01-10T08:10:17;5.80;99.90
51733;DHT22;39139;53.144;6.244;2023-01-10T08:12:42;5.50;99.90
51733;DHT22;39139;53.144;6.244;2023-01-10T08:15:08;5.70;99.90
51733;DHT22;39139;53.144;6.244;2023-01-10T08:17:35;5.40;99.90
51733;DHT22;39139;53.144;6.244;2023-01-10T08:20:01;6.00;99.90
51733;DHT22;39139;53.144;6.244;2023-01-10T08:22:26;5.40;99.90
51733;DHT22;39139;53.144;6.244;2023-01-10T08:24:52;6.30;99.90
51733;DHT22;39139;53.144;6.244;2023-01-10T08:27:18;5.40;99.90
51733;DHT22;39139;53.144;6.244;2023-01-10T08:29:44;6.80;99.90
51733;DHT22;39139;53.144;6.244;2023-01-10T08:32:10;5.60;99.90
51733;DHT22;39139;53.144;6.244;2023-01-10T08:34:36;5.50;99.90
51733;DHT22;39139;53.144;6.244;2023-01-10T08:37:02;5.60;99.90
51733;DHT22;39139;53.144;6.244;2023-01-10T08:39:29;5.50;99.90
51733;DHT22;39139;53.144;6.244;2023-01-10T08:41:55;5.50;99.90
51733;DHT22;39139;53.144;6.244;2023-01-10T08:44:22;5.70;99.90
51733;DHT22;39139;53.144;6.244;2023-01-10T08:46:47;5.80;99.90
51733;DHT22;39139;53.144;6.244;2023-01-10T08:49:13;5.70;99.90
51733;DHT22;39139;53.144;6.244;2023-01-10T08:51:39;6.00;99.90
51733;DHT22;39139;53.144;6.244;2023-01-10T08:54:05;5.70;99.90
51733;DHT22;39139;53.144;6.244;2023-01-10T08:56:30;5.80;99.90
51733;DHT22;39139;53.144;6.244;2023-01-10T08:58:56;5.90;99.90
51733;DHT22;39139;53.144;6.244;2023-01-10T09:01:22;5.90;99.90
51733;DHT22;39139;53.144;6.244;2023-01-10T09:03:48;5.80;99.90
51733;DHT22;39139;53.144;6.244;2023-01-10T09:06:14;5.90;99.90
51733;DHT22;39139;53.144;6.244;2023-01-10T09:08:39;5.90;99.90
51733;DHT22;39139;53.144;6.244;2023-01-10T09:11:05;5.70;99.90
51733;DHT22;39139;53.144;6.244;2023-01-10T09:13:31;5.80;99.90
51733;DHT22;39139;53.144;6.244;2023-01-10T09:15:58;5.90;99.90
51733;DHT22;39139;53.144;6.244;2023-01-10T09:18:24;5.80;99.90
51733;DHT22;39139;53.144;6.244;2023-01-10T09:20:50;5.80;99.90
51733;DHT22;39139;53.144;6.244;2023-01-10T09:23:18;6.00;99.90
51733;DHT22;39139;53.144;6.244;2023-01-10T09:25:45;6.60;99.90
51733;DHT22;39139;53.144;6.244;2023-01-10T09:28:12;6.60;99.90
51733;DHT22;39139;53.144;6.244;2023-01-10T09:30:38;6.10;99.90
51733;DHT22;39139;53.144;6.244;2023-01-10T09:33:04;6.10;99.90
51733;DHT22;39139;53.144;6.244;2023-01-10T09:35:33;6.10;99.90
51733;DHT22;39139;53.144;6.244;2023-01-10T09:38:00;6.10;99.90
51733;DHT22;39139;53.144;6.244;2023-01-10T09:40:39;6.20;99.90
51733;DHT22;39139;53.144;6.244;2023-01-10T09:43:15;6.10;99.90
51733;DHT22;39139;53.144;6.244;2023-01-10T09:45:47;6.20;99.90
51733;DHT22;39139;53.144;6.244;2023-01-10T09:51:37;6.40;99.90
51733;DHT22;39139;53.144;6.244;2023-01-10T09:54:12;6.40;99.90
51733;DHT22;39139;53.144;6.244;2023-01-10T09:56:38;6.50;99.90
51733;DHT22;39139;53.144;6.244;2023-01-10T09:59:05;6.60;99.90
51733;DHT22;39139;53.144;6.244;2023-01-10T10:01:34;6.80;99.90
51733;DHT22;39139;53.144;6.244;2023-01-10T10:04:26;6.50;99.90
51733;DHT22;39139;53.144;6.244;2023-01-10T10:06:52;6.70;99.90
51733;DHT22;39139;53.144;6.244;2023-01-10T10:09:23;6.70;99.90
51733;DHT22;39139;53.144;6.244;2023-01-10T10:12:03;6.80;99.90
51733;DHT22;39139;53.144;6.244;2023-01-10T10:14:45;6.80;99.90
51733;DHT22;39139;53.144;6.244;2023-01-10T10:17:48;6.80;99.90
51733;DHT22;39139;53.144;6.244;2023-01-10T10:20:35;6.90;99.90
51733;DHT22;39139;53.144;6.244;2023-01-10T10:31:40;6.70;99.90
51733;DHT22;39139;53.144;6.244;2023-01-10T10:37:12;6.70;99.90
51733;DHT22;39139;53.144;6.244;2023-01-10T10:39:49;6.70;99.90
51733;DHT22;39139;53.144;6.244;2023-01-10T10:42:17;6.80;99.90
51733;DHT22;39139;53.144;6.244;2023-01-10T10:45:00;6.80;99.90
51733;DHT22;39139;53.144;6.244;2023-01-10T10:47:31;6.70;99.90
51733;DHT22;39139;53.144;6.244;2023-01-10T10:52:32;7.10;99.90
51733;DHT22;39139;53.144;6.244;2023-01-10T10:54:59;6.90;99.90
51733;DHT22;39139;53.144;6.244;2023-01-10T10:57:30;6.90;99.90
51733;DHT22;39139;53.144;6.244;2023-01-10T10:59:57;6.90;99.90
51733;DHT22;39139;53.144;6.244;2023-01-10T11:02:30;7.40;99.90
51733;DHT22;39139;53.144;6.244;2023-01-10T11:05:02;6.80;99.90
51733;DHT22;39139;53.144;6.244;2023-01-10T11:07:32;7.00;99.90
51733;DHT22;39139;53.144;6.244;2023-01-10T11:10:04;6.90;99.90
51733;DHT22;39139;53.144;6.244;2023-01-10T11:12:53;7.10;99.90
51733;DHT22;39139;53.144;6.244;2023-01-10T11:20:36;7.00;99.90
51733;DHT22;39139;53.144;6.244;2023-01-10T11:23:02;6.90;99.90
51733;DHT22;39139;53.144;6.244;2023-01-10T11:25:28;7.00;99.90
51733;DHT22;39139;53.144;6.244;2023-01-10T11:27:59;7.00;99.90
51733;DHT22;39139;53.144;6.244;2023-01-10T11:30:30;7.00;99.90
51733;DHT22;39139;53.144;6.244;2023-01-10T11:32:57;6.90;99.90
51733;DHT22;39139;53.144;6.244;2023-01-10T11:35:31;6.90;99.90
51733;DHT22;39139;53.144;6.244;2023-01-10T11:37:59;7.00;99.90
51733;DHT22;39139;53.144;6.244;2023-01-10T11:40:27;6.90;99.90
51733;DHT22;39139;53.144;6.244;2023-01-10T11:42:54;6.90;99.90
51733;DHT22;39139;53.144;6.244;2023-01-10T11:45:29;6.90;99.90
51733;DHT22;39139;53.144;6.244;2023-01-10T11:48:09;7.00;99.90
51733;DHT22;39139;53.144;6.244;2023-01-10T11:50:41;7.00;99.90
51733;DHT22;39139;53.144;6.244;2023-01-10T11:53:30;6.90;99.90
51733;DHT22;39139;53.144;6.244;2023-01-10T11:55:58;6.90;99.90
51733;DHT22;39139;53.144;6.244;2023-01-10T11:58:32;6.80;99.90
51733;DHT22;39139;53.144;6.244;2023-01-10T12:00:59;6.80;99.90
51733;DHT22;39139;53.144;6.244;2023-01-10T12:03:36;6.80;99.90
51733;DHT22;39139;53.144;6.244;2023-01-10T12:06:22;6.80;99.90
51733;DHT22;39139;53.144;6.244;2023-01-10T12:08:48;6.70;99.90
51733;DHT22;39139;53.144;6.244;2023-01-10T12:13:54;6.70;99.90
51733;DHT22;39139;53.144;6.244;2023-01-10T12:16:30;6.80;99.90
51733;DHT22;39139;53.144;6.244;2023-01-10T12:19:01;6.70;99.90
51733;DHT22;39139;53.144;6.244;2023-01-10T12:21:38;6.70;99.90
51733;DHT22;39139;53.144;6.244;2023-01-10T12:24:17;6.90;99.90
51733;DHT22;39139;53.144;6.244;2023-01-10T12:26:46;6.60;99.90
51733;DHT22;39139;53.144;6.244;2023-01-10T12:29:18;6.60;99.90
51733;DHT22;39139;53.144;6.244;2023-01-10T12:31:45;6.60;99.90
51733;DHT22;39139;53.144;6.244;2023-01-10T12:34:18;7.40;99.90
51733;DHT22;39139;53.144;6.244;2023-01-10T12:37:04;6.60;99.90
51733;DHT22;39139;53.144;6.244;2023-01-10T12:39:38;6.60;99.90
51733;DHT22;39139;53.144;6.244;2023-01-10T12:45:18;6.60;99.90
51733;DHT22;39139;53.144;6.244;2023-01-10T12:55:39;6.60;99.90
51733;DHT22;39139;53.144;6.244;2023-01-10T12:58:33;6.60;99.90
51733;DHT22;39139;53.144;6.244;2023-01-10T13:00:58;6.60;99.90
51733;DHT22;39139;53.144;6.244;2023-01-10T13:03:28;7.40;99.90
51733;DHT22;39139;53.144;6.244;2023-01-10T13:05:56;6.50;99.90
51733;DHT22;39139;53.144;6.244;2023-01-10T13:08:34;6.60;99.90
51733;DHT22;39139;53.144;6.244;2023-01-10T13:11:02;6.60;99.90
51733;DHT22;39139;53.144;6.244;2023-01-10T13:13:41;6.50;99.90
51733;DHT22;39139;53.144;6.244;2023-01-10T13:21:40;6.60;99.90
51733;DHT22;39139;53.144;6.244;2023-01-10T13:24:23;6.60;99.90
51733;DHT22;39139;53.144;6.244;2023-01-10T13:27:01;7.40;99.90
51733;DHT22;39139;53.144;6.244;2023-01-10T13:29:37;6.50;99.90
51733;DHT22;39139;53.144;6.244;2023-01-10T13:32:31;6.50;99.90
51733;DHT22;39139;53.144;6.244;2023-01-10T13:35:13;6.40;99.90
51733;DHT22;39139;53.144;6.244;2023-01-10T13:37:41;6.90;99.90
51733;DHT22;39139;53.144;6.244;2023-01-10T13:40:16;6.50;99.90
51733;DHT22;39139;53.144;6.244;2023-01-10T13:42:45;6.50;99.90
51733;DHT22;39139;53.144;6.244;2023-01-10T13:45:30;6.50;99.90
51733;DHT22;39139;53.144;6.244;2023-01-10T13:47:58;6.50;99.90
51733;DHT22;39139;53.144;6.244;2023-01-10T13:52:53;6.60;99.90
51733;DHT22;39139;53.144;6.244;2023-01-10T13:55:21;6.50;99.90
51733;DHT22;39139;53.144;6.244;2023-01-10T13:57:53;6.40;99.90
51733;DHT22;39139;53.144;6.244;2023-01-10T14:00:22;6.50;99.90
51733;DHT22;39139;53.144;6.244;2023-01-10T14:03:07;6.40;99.90
51733;DHT22;39139;53.144;6.244;2023-01-10T14:05:32;6.50;99.90
51733;DHT22;39139;53.144;6.244;2023-01-10T14:08:00;6.40;99.90
51733;DHT22;39139;53.144;6.244;2023-01-10T14:10:30;6.70;99.90
51733;DHT22;39139;53.144;6.244;2023-01-10T14:13:06;6.40;99.90
51733;DHT22;39139;53.144;6.244;2023-01-10T14:15:42;6.50;99.90
51733;DHT22;39139;53.144;6.244;2023-01-10T14:18:24;6.50;99.90
51733;DHT22;39139;53.144;6.244;2023-01-10T14:23:30;6.50;99.90
51733;DHT22;39139;53.144;6.244;2023-01-10T14:25:58;6.50;99.90
51733;DHT22;39139;53.144;6.244;2023-01-10T14:28:24;6.40;99.90
51733;DHT22;39139;53.144;6.244;2023-01-10T14:31:19;6.40;99.90
51733;DHT22;39139;53.144;6.244;2023-01-10T14:33:46;6.40;99.90
51733;DHT22;39139;53.144;6.244;2023-01-10T14:36:23;6.40;99.90
51733;DHT22;39139;53.144;6.244;2023-01-10T14:38:53;6.50;99.90
51733;DHT22;39139;53.144;6.244;2023-01-10T14:41:43;6.50;99.90
51733;DHT22;39139;53.144;6.244;2023-01-10T14:44:17;5.10;99.90
51733;DHT22;39139;53.144;6.244;2023-01-10T14:46:50;6.40;99.90
51733;DHT22;39139;53.144;6.244;2023-01-10T14:49:38;6.40;99.90
51733;DHT22;39139;53.144;6.244;2023-01-10T14:52:19;6.40;99.90
51733;DHT22;39139;53.144;6.244;2023-01-10T14:54:50;7.80;99.90
51733;DHT22;39139;53.144;6.244;2023-01-10T14:57:22;6.30;99.90
51733;DHT22;39139;53.144;6.244;2023-01-10T14:59:49;6.40;99.90
51733;DHT22;39139;53.144;6.244;2023-01-10T15:02:23;6.40;99.90
51733;DHT22;39139;53.144;6.244;2023-01-10T15:04:54;6.30;99.90
51733;DHT22;39139;53.144;6.244;2023-01-10T15:07:22;6.40;99.90
51733;DHT22;39139;53.144;6.244;2023-01-10T15:09:54;6.40;99.90
51733;DHT22;39139;53.144;6.244;2023-01-10T15:12:24;6.40;99.90
51733;DHT22;39139;53.144;6.244;2023-01-10T15:15:00;6.50;99.90
51733;DHT22;39139;53.144;6.244;2023-01-10T15:17:26;6.40;99.90
51733;DHT22;39139;53.144;6.244;2023-01-10T15:19:52;6.40;99.90
51733;DHT22;39139;53.144;6.244;2023-01-10T15:22:29;6.40;99.90
51733;DHT22;39139;53.144;6.244;2023-01-10T15:25:00;6.40;99.90
51733;DHT22;39139;53.144;6.244;2023-01-10T15:27:27;6.50;99.90
51733;DHT22;39139;53.144;6.244;2023-01-10T15:29:53;6.50;99.90
51733;DHT22;39139;53.144;6.244;2023-01-10T15:34:52;6.50;99.90
51733;DHT22;39139;53.144;6.244;2023-01-10T15:37:22;6.60;99.90
51733;DHT22;39139;53.144;6.244;2023-01-10T15:39:52;6.50;99.90
51733;DHT22;39139;53.144;6.244;2023-01-10T15:42:19;7.70;99.90
51733;DHT22;39139;53.144;6.244;2023-01-10T15:44:47;6.50;99.90
51733;DHT22;39139;53.144;6.244;2023-01-10T15:52:51;6.50;99.90
51733;DHT22;39139;53.144;6.244;2023-01-10T15:55:45;6.40;99.90
51733;DHT22;39139;53.144;6.244;2023-01-10T15:58:27;6.50;99.90
51733;DHT22;39139;53.144;6.244;2023-01-10T16:00:55;6.50;99.90
51733;DHT22;39139;53.144;6.244;2023-01-10T16:03:30;6.40;99.90
51733;DHT22;39139;53.144;6.244;2023-01-10T16:05:58;6.30;99.90
51733;DHT22;39139;53.144;6.244;2023-01-10T16:08:36;7.40;99.90
51733;DHT22;39139;53.144;6.244;2023-01-10T16:11:05;6.30;99.90
51733;DHT22;39139;53.144;6.244;2023-01-10T16:13:31;6.30;99.90
51733;DHT22;39139;53.144;6.244;2023-01-10T16:15:59;6.20;99.90
51733;DHT22;39139;53.144;6.244;2023-01-10T16:18:26;6.40;99.90
51733;DHT22;39139;53.144;6.244;2023-01-10T16:20:55;7.50;99.90
51733;DHT22;39139;53.144;6.244;2023-01-10T16:23:33;6.10;99.90
51733;DHT22;39139;53.144;6.244;2023-01-10T16:26:02;6.20;99.90
51733;DHT22;39139;53.144;6.244;2023-01-10T16:28:29;6.20;99.90
51733;DHT22;39139;53.144;6.244;2023-01-10T16:31:00;6.20;99.90
51733;DHT22;39139;53.144;6.244;2023-01-10T16:33:26;6.20;99.90
51733;DHT22;39139;53.144;6.244;2023-01-10T16:35:54;6.20;99.90
51733;DHT22;39139;53.144;6.244;2023-01-10T16:38:21;6.20;99.90
51733;DHT22;39139;53.144;6.244;2023-01-10T16:41:01;6.90;99.90
51733;DHT22;39139;53.144;6.244;2023-01-10T16:43:50;6.10;99.90
51733;DHT22;39139;53.144;6.244;2023-01-10T16:46:16;6.10;99.90
51733;DHT22;39139;53.144;6.244;2023-01-10T16:48:42;6.10;99.90
51733;DHT22;39139;53.144;6.244;2023-01-10T16:51:17;6.10;99.90
51733;DHT22;39139;53.144;6.244;2023-01-10T16:53:44;6.10;99.90
51733;DHT22;39139;53.144;6.244;2023-01-10T16:56:15;6.10;99.90
51733;DHT22;39139;53.144;6.244;2023-01-10T16:58:41;6.00;99.90
51733;DHT22;39139;53.144;6.244;2023-01-10T17:01:13;6.70;99.90
51733;DHT22;39139;53.144;6.244;2023-01-10T17:03:39;6.10;99.90
51733;DHT22;39139;53.144;6.244;2023-01-10T17:06:05;6.10;99.90
51733;DHT22;39139;53.144;6.244;2023-01-10T17:08:30;6.20;99.90
51733;DHT22;39139;53.144;6.244;2023-01-10T17:11:01;6.10;99.90
51733;DHT22;39139;53.144;6.244;2023-01-10T17:13:33;6.10;99.90
51733;DHT22;39139;53.144;6.244;2023-01-10T17:16:00;6.10;99.90
51733;DHT22;39139;53.144;6.244;2023-01-10T17:18:26;6.10;99.90
51733;DHT22;39139;53.144;6.244;2023-01-10T17:20:55;6.60;99.90
51733;DHT22;39139;53.144;6.244;2023-01-10T17:23:21;6.10;99.90
51733;DHT22;39139;53.144;6.244;2023-01-10T17:25:47;6.70;99.90
51733;DHT22;39139;53.144;6.244;2023-01-10T17:28:14;7.30;99.90